KMCN/MCN METAR and TAF weather

Enter ICAO airport designator
Station Type Date Time Source
KMCN METAR 2020/04/08 20:53 UTC NOAA

KMCN 082053Z 24006KT 10SM FEW037 FEW060 27/19 A2978 RMK AO2 SLP080 T02720194 58030


Station Type Date Time Source
KMCN Decoded METAR 2020/04/08 20:53 UTC NOAA

MIDDLE GEORGIA REGIONAL AIRPORT , GA, United States (KMCN) 32-41N 83-39W 109M
Apr 08, 2020 - 04:53 PM EDT / 2020.04.08 2053 UTC
Wind: from the WSW (240 degrees) at 7 MPH (6 KT):0
Visibility: 10 mile(s):0
Sky conditions: mostly clear
Temperature: 81.0 F (27.2 C)
Dew Point: 66.9 F (19.4 C)
Relative Humidity: 62%
Pressure (altimeter): 29.78 in. Hg (1008 hPa)
Pressure tendency: 0.09 inches (3.0 hPa) lower than three hours ago
ob: KMCN 082053Z 24006KT 10SM FEW037 FEW060 27/19 A2978 RMK AO2 SLP080 T02720194 58030
cycle: 21

Station Type Date Time Source
KMCN TAF 2020/04/08 18:34 UTC NOAA

TAF KMCN 081731Z 0818/0918 28009KT P6SM VCSH BKN025
TEMPO 0822/0902 5SM TSRA BKN035CB
FM090200 25006KT P6SM SCT040 BKN250
FM090900 26008KT P6SM VCSH SCT008 OVC015 PROB30 0910/0912 VRB20G30KT 4SM TSRA BKN008 OVC015CB
FM091400 29011G20KT P6SM VCSH BKN025
FM091600 30015G22KT P6SM SCT035

Example: see airport list